Hakon Sorloth

Chefscout - Lillestrom
6 Mai 2027
Donnerstag
Verarbeitung

Persönlichkeit

Anpassungsfähigkeit (4) Ehrgeiz (8) Kontroverse (9) Loyalität (18) Druck (14) Professionalität (5) Fairness (1) Temperament (13)

Profil

Trainerstil Demokratisch
Lizenz Nationale B
Entschlossenheit 6
Menschenführung 9
Motivation 8
Disziplin 10
Arbeitszufriedenheit
63%
Ermüdung
0%
Rolle Chefscout
Gehalt 59.4K p/W
Vertrag 14.03.2028

Leistung

Verhalten Gut
Trainingseffektivität
20%
Spielerentwicklung
40%
Verletzungsprävention
40%
Taktische Umsetzung
35%

Letzte Ereignisse

Nahm an einer Scouting-Besprechung teil jetzt
Nahm an einer Scouting-Besprechung teil jetzt
Nahm an einer Scouting-Besprechung teil 7T her
Nahm an einer Scouting-Besprechung teil 7T her
Nahm an einer Scouting-Besprechung teil 7T her
Nahm an einer Scouting-Besprechung teil 7T her
Spiel beobachtet 7T her
Spiel beobachtet 7T her

Aktuell beobachtet

109
Spieler Verein Status Fähigkeit Vertrauen Beobachtet Zuletzt beobachtet Letzte Stimme
Othmane Maamma Watford Aktiv 121 / 131 40% 1 20.04.2027 -
Lucas Jetten Cambuur Aktiv 112 / 122 40% 2 16.04.2027 -
Belal Ateya Al Ahly Aktiv 112 / 122 40% 2 16.04.2027 -
Leo Castledine Middlesbrough Aktiv 134 / 134 40% 1 15.04.2027 -
David Ozoh Derby County Aktiv 123 / 124 40% 1 15.04.2027 -
Matías Gómez Granada Aktiv 118 / 124 40% 2 14.04.2027 -
Rocco Vata Watford Aktiv 119 / 123 40% 1 12.04.2027 -
Kamarni Ryan Burton Albion Aktiv 88 / 96 40% 1 12.04.2027 -
Christ Inao Oulaï Fiorentina Aktiv 125 / 133 40% 1 11.04.2027 -
Rhys Walters Port Vale Aktiv 93 / 109 40% 1 11.04.2027 -
Yussif Saidu Zaragoza Aktiv 128 / 120 40% 1 05.04.2027 -
Thulani Erasmus Platinum Stars Aktiv 96 / 106 40% 4 22.03.2027 -
André Miranda Porto Aktiv 100 / 106 40% 1 22.03.2027 -
Afonso Assis Moreirense Aktiv 108 / 117 40% 1 10.03.2027 -
Federico Serra Arezzo Aktiv 94 / 93 40% 1 02.03.2027 -
Víctor Guzmán Sporting CP Verloren 103 / 106 40% 1 02.03.2027 -
Riley Owen Trento Verhandlung 103 / 108 40% 1 08.02.2027 -
Keagan Tau Ajax Cape Town Aktiv 96 / 98 40% 1 08.02.2027 -
Aljoša Matko Ujpest Verloren 117 / 117 66% 1 01.02.2027 Befürworten
Dmitry Tsypchenko Torpedo Moscow Aktiv 106 / 101 40% 2 31.01.2027 -
José Martínes CSKA 1948 Aktiv 110 / 111 40% 2 31.01.2027 -
Matheus Alves CSKA Moscow Aktiv 120 / 131 40% 1 29.01.2027 -
Mikhail Ignatov Sochi Aktiv 126 / 105 40% 1 29.01.2027 -
Anthony Okachi Great Olympics Aktiv 103 / 93 40% 2 28.01.2027 -
Keagan Mokoena Free State Stars Aktiv 105 / 97 40% 2 27.01.2027 -
Diamanka Senghor Mosta Aktiv 98 / 96 40% 1 27.01.2027 -
Jacques Siwe Rubin Aktiv 113 / 115 40% 2 26.01.2027 -
Ruslan Apekov Torpedo Moscow Verloren 114 / 105 40% 1 26.01.2027 -
Nikolay Zlatev Cherno More Aktiv 97 / 102 40% 1 25.01.2027 -
Bongani Mothiba SuperSport United Aktiv 91 / 76 40% 3 24.01.2027 -
Williams Manyama SuperSport United Aktiv 106 / 114 40% 1 24.01.2027 -
Ruben van Bommel Ferencvaros Aktiv 125 / 133 40% 2 21.01.2027 -
Leandro Godoy CSKA Sofia Aktiv 107 / 112 40% 5 20.01.2027 -
Thalente Mbatha Orlando Pirates Aktiv 130 / 109 40% 1 20.01.2027 -
Brian Figueroa Morelia Aktiv 107 / 100 40% 1 20.01.2027 -
Harrison Ofori Liberty Professionals Verloren 111 / 103 40% 1 20.01.2027 -
Bandar Yaqoob ES Setif Aktiv 138 / 134 40% 2 19.01.2027 -
Nathan Ordaz Metalist Aktiv 102 / 105 40% 1 19.01.2027 -
Wesley Pomba Veres Aktiv 115 / 112 40% 1 16.01.2027 -
Jorge Padilla Cherno More Aktiv 109 / 110 40% 1 16.01.2027 -
Etiosa Ighodaro Kaizer Chiefs Aktiv 98 / 103 40% 3 15.01.2027 -
Peter Christiansen Viking Aktiv 114 / 125 40% 1 15.01.2027 -
Wandile Duba Maritzburg United Verloren 115 / 99 40% 4 14.01.2027 -
Brayan Gil Baltika Aktiv 129 / 125 40% 1 14.01.2027 -
Emil Ceïde Rosenborg Aktiv 122 / 118 40% 1 14.01.2027 -
Sebastián Arce Rodina Aktiv 124 / 116 40% 1 13.01.2027 -
Loum Tchaouna Coventry City Aktiv 138 / 137 40% 1 13.01.2027 -
Themba Ngcobo SuperSport United Aktiv 127 / 111 40% 3 10.01.2027 Beobachten
Yaroslav Gladyshev Dinamo Moscow Aktiv 131 / 114 40% 4 10.01.2027 -
Lechi Sadulaev Akhmat Grozny Aktiv 125 / 119 40% 1 10.01.2027 -
Olakunle Olusegun Rostov Aktiv 138 / 123 40% 1 10.01.2027 -
Agustín Módica Gimnasia y Esgrima Aktiv 124 / 125 40% 2 08.01.2027 -
Kenan Dervišagić Floriana Aktiv 95 / 94 40% 1 08.01.2027 -
Marcelo Allende Mamelodi Sundowns Aktiv 124 / 134 40% 2 07.01.2027 -
Siyanda Ndlovu Bloemfontein Celtic Aktiv 130 / 115 40% 1 05.01.2027 -
Miles Leaburn Charlton Athletic Aktiv 124 / 118 40% 3 03.01.2027 -
Mohammed Yahaya Great Olympics Aktiv 91 / 90 40% 1 02.01.2027 -
Ramiro Ruiz Rodríguez Atlético Tucumán Aktiv 122 / 128 40% 1 02.01.2027 -
Yago Santiago Racing Santander Aktiv 131 / 118 40% 2 31.12.2026 -
Ieltsin Camões Tromso Aktiv 116 / 115 40% 1 31.12.2026 -
Sergio Arribas Almería Aktiv 133 / 133 40% 1 30.12.2026 -
Evidence Makgopa Orlando Pirates Aktiv 101 / 114 40% 4 28.12.2026 -
Radek Šiler Podbrezova Aktiv 111 / 116 40% 1 28.12.2026 -
Ola Brynhildsen Bodo/Glimt Aktiv 129 / 122 40% 5 24.12.2026 -
Magomed Nasibov Pobeda Aktiv 92 / 78 40% 1 24.12.2026 -
Glenn Middleton Doncaster Rovers Aktiv 103 / 117 40% 1 23.12.2026 -
Mduduzi Shabalala Kaizer Chiefs Aktiv 99 / 119 40% 1 22.12.2026 -
Dmitry Pestryakov Dinamo Moscow Aktiv 116 / 108 40% 1 21.12.2026 -
Isaac Essien WAFA Aktiv 93 / 95 40% 2 18.12.2026 -
Brayan León Mamelodi Sundowns Aktiv 115 / 120 40% 2 17.12.2026 -
Yeangel Montero Naxxar Lions Aktiv 113 / 99 40% 1 15.12.2026 -
Dávid Ďuriš Rosenborg Aktiv 122 / 125 40% 1 14.12.2026 -
Mandla Mahlangu Ajax Cape Town Aktiv 93 / 98 40% 2 12.12.2026 Mehr Infos nötig
Suleiman Camara Slovan Bratislava Aktiv 132 / 116 40% 2 12.12.2026 -
Martin Sekulić Ural Aktiv 118 / 102 40% 2 11.12.2026 -
Aidomo Emakhu Oxford United Aktiv 124 / 125 40% 2 09.12.2026 -
Ammar Ramadan DAC Dunajska Streda Aktiv 132 / 125 40% 3 08.12.2026 -
Vyacheslav Grulev Nizhniy Novgorod Aktiv 124 / 112 40% 1 08.12.2026 -
Everton Bala Levski Aktiv 132 / 133 40% 1 06.12.2026 -
Slobodan Tedić Akron Aktiv 99 / 103 40% 1 06.12.2026 -
Tshepang Moremi Orlando Pirates Aktiv 127 / 105 40% 1 06.12.2026 Mehr Infos nötig
Denzel Jubitana Neftchi Aktiv 106 / 113 40% 2 03.12.2026 -
Alexandr Olenev Nart Aktiv 77 / 89 40% 1 02.12.2026 -
Ronaldo Rostov Aktiv 140 / 123 40% 1 27.11.2026 -
Jonathan Gyan Liberty Professionals Aktiv 110 / 93 40% 1 22.11.2026 -
Keagan Mothiba SuperSport United Verloren 118 / 115 40% 1 22.11.2026 Mehr Infos nötig
Daniel Karlsbakk Sarpsborg 08 Aktiv 119 / 126 40% 1 22.11.2026 -
Bongani Modiba Black Aces Aktiv 108 / 120 40% 1 20.11.2026 -
András Németh Puskas Akademia Aktiv 91 / 101 40% 1 20.11.2026 -
Albert Rusnak FK Senica Aktiv 95 / 93 40% 2 19.11.2026 -
Elias Hoff Melkersen Stromsgodset Aktiv 111 / 121 40% 2 17.11.2026 -
Krisztofer Horváth Ujpest Aktiv 122 / 118 40% 1 15.11.2026 -
Pavel Meleshin Sochi Aktiv 111 / 128 40% 1 14.11.2026 -
Andrei Cordea CFR Cluj Aktiv 121 / 128 40% 1 13.11.2026 -
Daniel Kelly Oxford United Aktiv 116 / 123 40% 1 11.11.2026 -
Alexander Warneryd Tromso Aktiv 116 / 115 40% 1 11.11.2026 -
Kwame Opoku Asante Kotoko Aktiv 93 / 99 40% 1 10.11.2026 -
Bismark Asante Ashanti Gold Aktiv 102 / 96 40% 1 09.11.2026 -
Vladimir Khubulov Dinamo Makhachkala Aktiv 91 / 99 40% 1 07.11.2026 -
Magnus Bech Riisnæs Bodo/Glimt Aktiv 124 / 123 40% 2 05.11.2026 -
Joe Johnson Luton Town Aktiv 110 / 106 40% 1 05.10.2026 -
Mikkel Hope Haugesund Verloren 103 / 108 40% 1 10.09.2026 -
João Simões Sporting CP Aktiv 118 / 139 40% 1 10.09.2026 -
Mauro Carrizo Atlético Tucumán Aktiv 92 / 109 40% 1 09.09.2026 -
Filip Lissah Swansea City Aktiv 101 / 121 40% 1 09.09.2026 -
Filip Loftesnes-Bjune Sandefjord Aktiv 90 / 105 40% 1 08.09.2026 -
Edvard Pettersen Sandefjord Aktiv 91 / 105 40% 1 08.09.2026 -
Matías Magdaleno Estudiantes Aktiv 113 / 96 40% 1 07.09.2026 -
Markus Naglestad HIFK Aktiv 111 / 103 40% 1 03.08.2026 -